Airfield :
LOGIN :

Register | Disclaimer

   EN    FR    IT 

 










Legend :    VFR   Marginal VFR   IFR   Intensive IFR   Very Intensive IFR
Visi :
Ceiling :
>= 8 km
>= 3000ft
5 to 8 km
1000 to 3000 ft
1500m to 5 km
500 to 1000 ft
800 to 1500m
200 to 500 ft
< 800m
< 200 ft
Symbols :   Thunderstorms  Fog  Heavy snow  Heavy precipitations  Wind > 20 kt
SIGMETs :     Misc.  Thunderstorms  Icing  Turbulence  Mountain Waves  Volcanic Ashes






- Airport Elevation : 94 ft
- IATA code : MUH


HEMM - Mersa Matruh

CURRENT METAR :
  • 122100Z 25010KT CAVOK 15/09 Q1011 NOSIG

EXPIRED METARs :
  • 122000Z 26009KT CAVOK 15/09 Q1011 NOSIG
  • 121900Z 24008KT CAVOK 16/09 Q1011 NOSIG

TAF TAF HEMM
Valid from the 12 at 18:00 until the 14 at 00:00 UTC


121700Z 1218/1324 25012G25KT 9999 SCT020
TEMPO 1218/1312 5000 RA SA BKN020



MET'MAP, your aeronautical weather chart ! - Copyright ORBIFLY December 2007 - Disclaimer

ORBIFLY MET'MAP TEAM :

Programming & Development : Alexandra Zaïnal
Concept & original design : Baudouin d'Aumeries
Assistance for programming : Marc-Olivier Méhu
Technical & hardware support : Manuel Goepfert

Contact : metmap@orbifly.com




SOURCES & CREDITS :

   NOAA